createdAt,value
2022-08-26T00:00:53.585Z,81.79
2022-08-26T00:01:53.870Z,81.70
2022-08-26T00:02:53.564Z,81.70
2022-08-26T00:03:53.614Z,81.79
2022-08-26T00:04:53.545Z,81.79
2022-08-26T00:05:53.517Z,82.09
2022-08-26T00:06:53.509Z,82.34
2022-08-26T00:07:53.497Z,82.34
2022-08-26T00:08:53.476Z,82.34
2022-08-26T00:09:54.504Z,82.34
2022-08-26T00:10:53.455Z,82.43
2022-08-26T00:11:53.437Z,82.53
2022-08-26T00:12:53.453Z,82.53
2022-08-26T00:13:53.431Z,82.73
2022-08-26T00:14:53.397Z,82.64
2022-08-26T00:15:53.386Z,82.53
2022-08-26T00:16:53.407Z,82.43
2022-08-26T00:17:53.366Z,82.43
2022-08-26T00:18:53.342Z,82.34
2022-08-26T00:19:53.353Z,82.23
2022-08-26T00:20:53.373Z,82.23
2022-08-26T00:21:53.315Z,82.23
2022-08-26T00:22:53.303Z,82.23
2022-08-26T00:23:53.286Z,82.34
2022-08-26T00:24:53.267Z,82.34
2022-08-26T00:25:53.263Z,82.34
2022-08-26T00:26:53.256Z,82.53
2022-08-26T00:27:53.236Z,82.53
2022-08-26T00:28:53.226Z,82.43
2022-08-26T00:29:53.227Z,82.53
2022-08-26T00:30:53.187Z,82.64
2022-08-26T00:31:53.232Z,82.64
2022-08-26T00:32:53.166Z,82.73
2022-08-26T00:33:53.175Z,82.83
2022-08-26T00:34:53.134Z,82.97
2022-08-26T00:35:53.134Z,83.07
2022-08-26T00:36:53.104Z,83.07
2022-08-26T00:37:53.106Z,83.17
2022-08-26T00:38:53.076Z,83.27
2022-08-26T00:39:53.121Z,83.37
2022-08-26T00:40:53.050Z,83.37
2022-08-26T00:41:53.045Z,83.27
2022-08-26T00:42:53.035Z,83.37
2022-08-26T00:43:53.024Z,83.47
2022-08-26T00:44:53.011Z,83.57
2022-08-26T00:45:53.072Z,83.67
2022-08-26T00:46:52.984Z,83.67
2022-08-26T00:47:52.974Z,83.67
2022-08-26T00:48:52.966Z,83.67
2022-08-26T00:49:52.942Z,83.67
2022-08-26T00:50:52.928Z,83.77
2022-08-26T00:51:52.925Z,83.77
2022-08-26T00:52:52.917Z,83.57
2022-08-26T00:53:52.886Z,83.57
2022-08-26T00:54:52.886Z,83.67
2022-08-26T00:55:52.887Z,83.57
2022-08-26T00:56:52.864Z,83.67
2022-08-26T00:57:52.847Z,83.57
2022-08-26T00:58:52.826Z,83.57
2022-08-26T00:59:52.815Z,83.67
2022-08-26T01:00:52.852Z,83.57
2022-08-26T01:01:52.831Z,83.47
2022-08-26T01:02:52.772Z,83.57
2022-08-26T01:03:52.764Z,83.47
2022-08-26T01:04:55.610Z,83.47
2022-08-26T01:05:52.723Z,83.47
2022-08-26T01:06:52.707Z,83.43
2022-08-26T01:07:52.711Z,83.33
2022-08-26T01:08:52.703Z,83.33
2022-08-26T01:09:52.684Z,83.33
2022-08-26T01:10:55.819Z,83.33
2022-08-26T01:11:52.665Z,83.33
2022-08-26T01:12:52.645Z,83.33
2022-08-26T01:13:52.633Z,83.33
2022-08-26T01:14:52.602Z,83.33
2022-08-26T01:15:52.593Z,83.43
2022-08-26T01:16:52.573Z,83.23
2022-08-26T01:17:52.764Z,83.23
2022-08-26T01:18:52.565Z,83.23
2022-08-26T01:19:52.542Z,83.23
2022-08-26T01:20:52.534Z,83.23
2022-08-26T01:21:53.526Z,83.23
2022-08-26T01:22:52.508Z,83.13
2022-08-26T01:23:57.743Z,83.13
2022-08-26T01:24:53.480Z,83.13
2022-08-26T01:25:52.463Z,83.23
2022-08-26T01:26:52.440Z,83.23
2022-08-26T01:27:52.455Z,83.13
2022-08-26T01:28:52.427Z,83.23
2022-08-26T01:29:52.433Z,83.13
2022-08-26T01:30:52.403Z,83.13
2022-08-26T01:31:52.440Z,83.13
2022-08-26T01:32:52.384Z,83.23
2022-08-26T01:33:52.363Z,83.23
2022-08-26T01:34:52.353Z,83.23
2022-08-26T01:35:52.335Z,83.33
2022-08-26T01:36:52.313Z,83.33
2022-08-26T01:37:52.326Z,83.33
2022-08-26T01:38:52.292Z,83.33
2022-08-26T01:39:52.339Z,83.33
2022-08-26T01:40:52.263Z,83.43
2022-08-26T01:41:53.534Z,83.43
2022-08-26T01:42:52.264Z,83.43
2022-08-26T01:43:52.243Z,83.53
2022-08-26T01:44:52.265Z,83.53
2022-08-26T01:45:52.245Z,83.63
2022-08-26T01:46:52.218Z,83.63
2022-08-26T01:47:56.885Z,83.77
2022-08-26T01:48:54.570Z,83.87
2022-08-26T01:49:53.726Z,84.07
2022-08-26T01:50:52.160Z,84.07
2022-08-26T01:51:52.111Z,84.17
2022-08-26T01:52:54.349Z,84.27
2022-08-26T01:53:52.092Z,84.37
2022-08-26T01:54:52.091Z,84.37
2022-08-26T01:55:52.063Z,84.37
2022-08-26T01:56:52.052Z,84.47
2022-08-26T01:57:52.039Z,84.47
2022-08-26T01:58:52.012Z,84.47
2022-08-26T01:59:52.013Z,84.57
2022-08-26T02:00:52.028Z,84.67
2022-08-26T02:01:52.820Z,84.67
2022-08-26T02:02:52.273Z,84.77
2022-08-26T02:03:51.994Z,84.81
2022-08-26T02:04:51.996Z,84.91
2022-08-26T02:05:51.932Z,84.91
2022-08-26T02:06:51.923Z,85.01
2022-08-26T02:07:51.914Z,85.01
2022-08-26T02:08:51.891Z,85.01
2022-08-26T02:09:51.881Z,85.11
2022-08-26T02:10:51.862Z,85.11
2022-08-26T02:11:58.872Z,85.21
2022-08-26T02:12:54.553Z,85.31
2022-08-26T02:13:51.832Z,85.31
2022-08-26T02:14:51.814Z,85.21
2022-08-26T02:15:51.839Z,85.31
2022-08-26T02:16:51.799Z,85.41
2022-08-26T02:17:52.638Z,85.41
2022-08-26T02:18:53.331Z,85.41
2022-08-26T02:19:51.760Z,85.51
2022-08-26T02:20:51.834Z,85.51
2022-08-26T02:21:51.962Z,85.51
2022-08-26T02:22:51.717Z,85.61
2022-08-26T02:23:51.713Z,85.61
2022-08-26T02:24:51.728Z,85.61
2022-08-26T02:25:51.671Z,85.71
2022-08-26T02:26:51.656Z,85.81
2022-08-26T02:27:51.666Z,85.81
2022-08-26T02:28:51.655Z,85.81
2022-08-26T02:29:51.673Z,85.91
2022-08-26T02:30:51.634Z,86.01
2022-08-26T02:31:51.648Z,86.01
2022-08-26T02:32:51.602Z,86.05
2022-08-26T02:33:51.597Z,86.11
2022-08-26T02:34:51.599Z,86.15
2022-08-26T02:35:51.549Z,86.25
2022-08-26T02:36:51.553Z,86.25
2022-08-26T02:37:51.554Z,86.25
2022-08-26T02:38:52.103Z,86.55
2022-08-26T02:39:51.544Z,86.55
2022-08-26T02:40:51.506Z,86.55
2022-08-26T02:41:51.521Z,86.65
2022-08-26T02:42:53.030Z,86.65
2022-08-26T02:43:51.477Z,86.75
2022-08-26T02:44:51.468Z,86.75
2022-08-26T02:45:51.402Z,86.75
2022-08-26T02:46:51.473Z,86.95
2022-08-26T02:47:51.391Z,86.95
2022-08-26T02:48:51.365Z,87.05
2022-08-26T02:49:51.388Z,87.05
2022-08-26T02:50:51.352Z,87.05
2022-08-26T02:51:51.347Z,87.05
2022-08-26T02:52:51.349Z,87.15
2022-08-26T02:53:51.302Z,87.25
2022-08-26T02:54:51.294Z,87.15
2022-08-26T02:55:51.342Z,87.25
2022-08-26T02:56:51.317Z,87.39
2022-08-26T02:57:51.269Z,87.45
2022-08-26T02:58:51.261Z,87.59
2022-08-26T02:59:51.236Z,87.69
2022-08-26T03:00:52.932Z,87.69
2022-08-26T03:01:51.229Z,87.89
2022-08-26T03:02:51.209Z,87.89
2022-08-26T03:03:51.181Z,87.89
2022-08-26T03:04:58.139Z,88.09
2022-08-26T03:05:52.193Z,88.09
2022-08-26T03:06:52.851Z,88.09
2022-08-26T03:07:51.190Z,88.09
2022-08-26T03:08:51.130Z,88.19
2022-08-26T03:09:51.117Z,88.19
2022-08-26T03:10:51.120Z,88.09
2022-08-26T03:11:51.082Z,88.19
2022-08-26T03:12:51.084Z,88.19
2022-08-26T03:13:51.072Z,88.29
2022-08-26T03:14:51.043Z,88.29
2022-08-26T03:15:51.126Z,88.29
2022-08-26T03:16:51.004Z,88.39
2022-08-26T03:17:51.002Z,88.49
2022-08-26T03:18:52.423Z,88.49
2022-08-26T03:19:57.044Z,88.49
2022-08-26T03:20:51.963Z,88.49
2022-08-26T03:21:50.950Z,88.49
2022-08-26T03:22:50.931Z,88.49
2022-08-26T03:23:50.921Z,88.49
2022-08-26T03:24:50.923Z,88.49
2022-08-26T03:25:50.891Z,88.39
2022-08-26T03:26:52.648Z,88.49
2022-08-26T03:27:50.867Z,88.49
2022-08-26T03:28:50.858Z,88.49
2022-08-26T03:29:50.847Z,88.39
2022-08-26T03:30:50.832Z,88.49
2022-08-26T03:31:50.907Z,88.49
2022-08-26T03:32:50.908Z,88.39
2022-08-26T03:33:50.783Z,88.39
2022-08-26T03:34:50.782Z,88.29
2022-08-26T03:35:50.922Z,88.29
2022-08-26T03:36:50.771Z,88.29
2022-08-26T03:37:50.775Z,88.39
2022-08-26T03:38:50.745Z,88.39
2022-08-26T03:39:50.741Z,88.49
2022-08-26T03:40:50.714Z,88.49
2022-08-26T03:41:50.701Z,88.49
2022-08-26T03:42:50.692Z,88.59
2022-08-26T03:43:50.774Z,88.59
2022-08-26T03:44:50.651Z,88.59
2022-08-26T03:45:51.279Z,88.59
2022-08-26T03:46:50.656Z,88.59
2022-08-26T03:47:50.642Z,88.69
2022-08-26T03:48:50.592Z,88.69
2022-08-26T03:49:50.615Z,88.69
2022-08-26T03:50:50.625Z,88.69
2022-08-26T03:51:50.607Z,88.59
2022-08-26T03:52:50.565Z,88.59
2022-08-26T03:53:50.568Z,88.69
2022-08-26T03:54:50.553Z,88.79
2022-08-26T03:55:51.996Z,88.69
2022-08-26T03:56:50.481Z,88.69
2022-08-26T03:57:50.503Z,88.89
2022-08-26T03:58:50.480Z,88.79
2022-08-26T03:59:50.465Z,88.99
2022-08-26T04:00:55.456Z,89.03
2022-08-26T04:01:51.501Z,89.14
2022-08-26T04:02:50.531Z,89.14
2022-08-26T04:03:50.416Z,89.03
2022-08-26T04:04:50.396Z,88.99
2022-08-26T04:05:50.390Z,88.99
2022-08-26T04:06:50.367Z,88.89
2022-08-26T04:07:50.486Z,88.79
2022-08-26T04:08:50.345Z,88.79
2022-08-26T04:09:50.327Z,88.89
2022-08-26T04:10:50.350Z,88.79
2022-08-26T04:11:50.847Z,88.69
2022-08-26T04:12:50.298Z,88.59
2022-08-26T04:13:50.280Z,88.59
2022-08-26T04:14:50.289Z,88.59
2022-08-26T04:15:50.295Z,88.49
2022-08-26T04:16:50.240Z,88.49
2022-08-26T04:17:50.219Z,88.39
2022-08-26T04:18:50.241Z,88.29
2022-08-26T04:19:50.201Z,88.29
2022-08-26T04:20:50.271Z,88.29
2022-08-26T04:21:50.185Z,88.19
2022-08-26T04:22:50.161Z,88.29
2022-08-26T04:23:50.170Z,88.29
2022-08-26T04:24:50.149Z,88.29
2022-08-26T04:25:50.124Z,88.29
2022-08-26T04:26:50.173Z,88.19
2022-08-26T04:27:50.092Z,88.19
2022-08-26T04:28:50.142Z,88.19
2022-08-26T04:29:54.717Z,88.09
2022-08-26T04:30:51.079Z,88.09
2022-08-26T04:31:50.059Z,87.99
2022-08-26T04:32:51.033Z,87.85
2022-08-26T04:33:50.066Z,87.85
2022-08-26T04:34:50.049Z,87.75
2022-08-26T04:35:50.049Z,87.75
2022-08-26T04:36:50.034Z,87.75
2022-08-26T04:37:49.987Z,87.85
2022-08-26T04:38:49.948Z,87.85
2022-08-26T04:39:49.969Z,87.85
2022-08-26T04:40:50.013Z,87.85
2022-08-26T04:41:49.917Z,87.85
2022-08-26T04:42:49.975Z,87.85
2022-08-26T04:43:49.917Z,87.85
2022-08-26T04:44:49.871Z,87.85
2022-08-26T04:45:49.937Z,87.85
2022-08-26T04:46:49.953Z,87.95
2022-08-26T04:47:49.863Z,87.85
2022-08-26T04:48:49.835Z,87.85
2022-08-26T04:49:49.842Z,87.85
2022-08-26T04:50:49.831Z,87.75
2022-08-26T04:51:49.809Z,87.75
2022-08-26T04:52:49.852Z,87.65
2022-08-26T04:53:49.771Z,87.65
2022-08-26T04:54:49.771Z,87.55
2022-08-26T04:55:51.562Z,87.55
2022-08-26T04:56:50.719Z,87.35
2022-08-26T04:57:49.705Z,87.35
2022-08-26T04:58:49.691Z,87.21
2022-08-26T04:59:49.682Z,87.11
2022-08-26T05:00:49.681Z,87.11
2022-08-26T05:01:49.853Z,87.01
2022-08-26T05:02:49.693Z,86.91
2022-08-26T05:03:49.751Z,86.91
2022-08-26T05:04:49.620Z,86.91
2022-08-26T05:05:49.623Z,86.81
2022-08-26T05:06:49.592Z,86.71
2022-08-26T05:07:49.934Z,86.51
2022-08-26T05:08:49.562Z,86.47
2022-08-26T05:09:49.547Z,86.36
2022-08-26T05:10:49.543Z,86.36
2022-08-26T05:11:52.162Z,86.27
2022-08-26T05:12:49.611Z,86.27
2022-08-26T05:13:49.527Z,86.07
2022-08-26T05:14:49.499Z,86.07
2022-08-26T05:15:49.499Z,86.07
2022-08-26T05:16:49.456Z,86.17
2022-08-26T05:17:49.506Z,86.17
2022-08-26T05:18:49.452Z,86.17
2022-08-26T05:19:49.409Z,86.17
2022-08-26T05:20:49.432Z,86.07
2022-08-26T05:21:49.428Z,85.97
2022-08-26T05:22:49.404Z,85.87
2022-08-26T05:23:49.473Z,85.83
2022-08-26T05:24:49.370Z,85.87
2022-08-26T05:25:49.376Z,85.87
2022-08-26T05:26:49.348Z,85.72
2022-08-26T05:27:49.317Z,85.72
2022-08-26T05:28:49.297Z,85.63
2022-08-26T05:29:54.435Z,85.63
2022-08-26T05:30:50.306Z,85.63
2022-08-26T05:31:49.265Z,85.53
2022-08-26T05:32:52.522Z,85.42
2022-08-26T05:33:50.274Z,85.42
2022-08-26T05:34:49.224Z,85.33
2022-08-26T05:35:49.236Z,85.33
2022-08-26T05:36:49.216Z,85.33
2022-08-26T05:37:49.299Z,85.33
2022-08-26T05:38:49.193Z,85.13
2022-08-26T05:39:51.162Z,85.09
2022-08-26T05:40:49.166Z,84.99
2022-08-26T05:41:49.137Z,84.89
2022-08-26T05:42:49.134Z,84.69
2022-08-26T05:43:49.115Z,84.59
2022-08-26T05:44:53.858Z,84.39
2022-08-26T05:45:50.088Z,84.49
2022-08-26T05:46:49.118Z,84.39
2022-08-26T05:47:49.064Z,84.29
2022-08-26T05:48:49.056Z,84.15
2022-08-26T05:49:51.445Z,84.15
2022-08-26T05:50:49.052Z,83.95
2022-08-26T05:51:49.057Z,83.95
2022-08-26T05:52:49.027Z,83.85
2022-08-26T05:53:54.599Z,83.85
2022-08-26T05:54:49.964Z,83.85
2022-08-26T05:55:48.943Z,83.75
2022-08-26T05:56:48.952Z,83.95
2022-08-26T05:57:48.962Z,83.75
2022-08-26T05:58:49.301Z,84.29
2022-08-26T05:59:48.930Z,84.39
2022-08-26T06:00:48.936Z,84.15
2022-08-26T06:01:49.005Z,84.15
2022-08-26T06:02:48.902Z,83.95
2022-08-26T06:03:48.915Z,83.85
2022-08-26T06:04:48.842Z,83.65
2022-08-26T06:05:48.853Z,83.75
2022-08-26T06:06:48.835Z,83.85
2022-08-26T06:07:48.808Z,83.85
2022-08-26T06:08:48.832Z,83.65
2022-08-26T06:09:48.792Z,83.61
2022-08-26T06:10:48.833Z,83.51
2022-08-26T06:11:48.777Z,83.51
2022-08-26T06:12:48.785Z,83.11
2022-08-26T06:13:48.723Z,83.01
2022-08-26T06:14:49.021Z,83.01
2022-08-26T06:15:48.763Z,83.01
2022-08-26T06:16:48.684Z,83.31
2022-08-26T06:17:48.705Z,83.31
2022-08-26T06:18:48.663Z,83.11
2022-08-26T06:19:48.644Z,83.11
2022-08-26T06:20:57.427Z,82.97
2022-08-26T06:21:53.953Z,82.87
2022-08-26T06:22:48.608Z,82.87
2022-08-26T06:23:48.603Z,82.87
2022-08-26T06:24:49.609Z,82.78
2022-08-26T06:25:48.558Z,82.78
2022-08-26T06:26:50.357Z,82.67
2022-08-26T06:27:48.550Z,82.67
2022-08-26T06:28:48.520Z,82.67
2022-08-26T06:29:48.525Z,82.48
2022-08-26T06:30:48.569Z,82.28
2022-08-26T06:31:48.499Z,82.18
2022-08-26T06:32:48.520Z,82.04
2022-08-26T06:33:48.470Z,81.94
2022-08-26T06:34:49.415Z,82.14
2022-08-26T06:35:48.450Z,82.34
2022-08-26T06:36:48.418Z,82.14
2022-08-26T06:37:48.524Z,81.94
2022-08-26T06:38:48.389Z,81.84
2022-08-26T06:39:48.402Z,81.64
2022-08-26T06:40:48.403Z,81.94
2022-08-26T06:41:48.382Z,82.14
2022-08-26T06:42:48.367Z,81.84
2022-08-26T06:43:48.376Z,81.94
2022-08-26T06:44:48.352Z,81.80
2022-08-26T06:45:48.321Z,81.70
2022-08-26T06:46:50.275Z,81.20
2022-08-26T06:47:48.285Z,81.50
2022-08-26T06:48:49.124Z,81.40
2022-08-26T06:49:48.430Z,81.60
2022-08-26T06:50:48.233Z,81.56
2022-08-26T06:51:48.336Z,80.96
2022-08-26T06:52:49.994Z,80.66
2022-08-26T06:53:48.325Z,80.57
2022-08-26T06:54:48.170Z,80.96
2022-08-26T06:55:48.860Z,80.96
2022-08-26T06:56:48.172Z,80.66
2022-08-26T06:57:48.194Z,80.47
2022-08-26T06:58:48.122Z,80.36
2022-08-26T06:59:48.115Z,80.47
2022-08-26T07:00:48.803Z,80.57
2022-08-26T07:01:49.740Z,80.23
2022-08-26T07:02:48.186Z,80.13
2022-08-26T07:03:48.278Z,80.03
2022-08-26T07:04:48.130Z,80.13
2022-08-26T07:05:48.072Z,80.03
2022-08-26T07:06:48.823Z,79.93
2022-08-26T07:07:48.018Z,79.73
2022-08-26T07:08:48.018Z,79.73
2022-08-26T07:09:48.889Z,79.93
2022-08-26T07:10:47.998Z,79.83
2022-08-26T07:11:48.057Z,79.50
2022-08-26T07:12:48.011Z,79.50
2022-08-26T07:13:47.940Z,79.60
2022-08-26T07:14:48.895Z,79.39
2022-08-26T07:15:48.009Z,79.30
2022-08-26T07:16:48.922Z,79.39
2022-08-26T07:17:47.916Z,79.39
2022-08-26T07:18:47.881Z,79.39
2022-08-26T07:19:47.868Z,79.20
2022-08-26T07:20:47.897Z,78.90
2022-08-26T07:21:47.837Z,78.90
2022-08-26T07:22:47.838Z,78.76
2022-08-26T07:23:47.839Z,78.56
2022-08-26T07:24:47.902Z,78.56
2022-08-26T07:25:47.820Z,78.86
2022-08-26T07:26:47.780Z,78.56
2022-08-26T07:27:53.920Z,78.47
2022-08-26T07:28:48.772Z,78.13
2022-08-26T07:29:47.748Z,78.03
2022-08-26T07:30:47.792Z,77.73
2022-08-26T07:31:47.725Z,77.83
2022-08-26T07:32:47.706Z,77.93
2022-08-26T07:33:47.700Z,77.73
2022-08-26T07:34:47.695Z,77.50
2022-08-26T07:35:47.677Z,77.20
2022-08-26T07:36:47.667Z,76.90
2022-08-26T07:37:47.638Z,77.29
2022-08-26T07:38:47.740Z,77.40
2022-08-26T07:39:47.721Z,77.06
2022-08-26T07:40:47.611Z,77.16
2022-08-26T07:41:47.635Z,76.57
2022-08-26T07:42:47.566Z,76.07
2022-08-26T07:43:47.599Z,75.87
2022-08-26T07:44:47.593Z,76.07
2022-08-26T07:45:47.584Z,76.17
2022-08-26T07:46:52.206Z,75.97
2022-08-26T07:47:49.407Z,76.07
2022-08-26T07:48:47.515Z,76.17
2022-08-26T07:49:47.490Z,75.87
2022-08-26T07:50:50.138Z,75.78
2022-08-26T07:51:47.458Z,76.17
2022-08-26T07:52:47.461Z,76.17
2022-08-26T07:53:48.031Z,75.84
2022-08-26T07:54:48.419Z,75.67
2022-08-26T07:55:47.439Z,75.74
2022-08-26T07:56:47.424Z,75.67
2022-08-26T07:57:47.383Z,75.74
2022-08-26T07:58:50.966Z,75.74
2022-08-26T07:59:47.398Z,75.74
2022-08-26T08:00:47.332Z,75.74
2022-08-26T08:01:47.393Z,75.54
2022-08-26T08:02:47.321Z,75.44
2022-08-26T08:03:47.315Z,75.31
2022-08-26T08:04:47.369Z,75.10
2022-08-26T08:05:47.332Z,74.91
2022-08-26T08:06:47.274Z,74.80
2022-08-26T08:07:47.266Z,75.01
2022-08-26T08:08:47.233Z,74.91
2022-08-26T08:09:47.405Z,75.10
2022-08-26T08:10:48.750Z,74.80
2022-08-26T08:11:47.195Z,75.14
2022-08-26T08:12:54.211Z,75.44
2022-08-26T08:13:47.169Z,75.24
2022-08-26T08:14:47.241Z,75.24
2022-08-26T08:15:47.168Z,75.63
2022-08-26T08:16:47.219Z,75.84
2022-08-26T08:17:50.537Z,75.84
2022-08-26T08:18:47.088Z,75.70
2022-08-26T08:19:47.099Z,75.80
2022-08-26T08:21:04.684Z,75.40
2022-08-26T08:21:48.111Z,75.50
2022-08-26T08:22:47.053Z,75.50
2022-08-26T08:23:47.032Z,75.60
2022-08-26T08:24:49.947Z,75.80
2022-08-26T08:25:48.067Z,75.20
2022-08-26T08:26:47.027Z,74.91
2022-08-26T08:27:47.009Z,74.80
2022-08-26T08:28:47.855Z,74.80
2022-08-26T08:29:46.960Z,75.10
2022-08-26T08:30:47.063Z,75.01
2022-08-26T08:32:02.345Z,74.67
2022-08-26T08:32:47.918Z,74.48
2022-08-26T08:33:46.935Z,74.08
2022-08-26T08:34:46.898Z,73.98
2022-08-26T08:35:46.888Z,73.98
2022-08-26T08:36:46.858Z,73.85
2022-08-26T08:37:46.867Z,73.45
2022-08-26T08:38:46.849Z,73.11
2022-08-26T08:39:46.847Z,72.52
2022-08-26T08:40:46.829Z,72.42
2022-08-26T08:41:46.812Z,72.22
2022-08-26T08:42:46.901Z,72.03
2022-08-26T08:43:46.779Z,72.09
2022-08-26T08:44:52.188Z,72.19
2022-08-26T08:45:47.831Z,71.89
2022-08-26T08:46:46.737Z,71.20
2022-08-26T08:47:46.726Z,70.51
2022-08-26T08:48:46.711Z,70.71
2022-08-26T08:49:46.708Z,70.61
2022-08-26T08:50:46.703Z,70.81
2022-08-26T08:51:46.689Z,70.81
2022-08-26T08:52:46.659Z,70.90
2022-08-26T08:53:46.648Z,70.90
2022-08-26T08:54:46.627Z,70.81
2022-08-26T08:55:46.632Z,70.41
2022-08-26T08:56:46.637Z,70.31
2022-08-26T08:57:46.607Z,70.21
2022-08-26T08:58:46.599Z,70.12
2022-08-26T08:59:46.569Z,69.52
2022-08-26T09:00:46.586Z,69.23
2022-08-26T09:01:46.551Z,69.42
2022-08-26T09:02:47.599Z,69.42
2022-08-26T09:03:46.515Z,69.72
2022-08-26T09:04:46.536Z,69.62
2022-08-26T09:05:48.879Z,69.72
2022-08-26T09:06:46.507Z,70.12
2022-08-26T09:07:47.015Z,70.12
2022-08-26T09:08:46.446Z,69.82
2022-08-26T09:09:46.449Z,69.82
2022-08-26T09:10:46.452Z,69.72
2022-08-26T09:11:46.410Z,69.92
2022-08-26T09:12:46.398Z,69.23
2022-08-26T09:13:46.398Z,69.39
2022-08-26T09:14:46.399Z,68.86
2022-08-26T09:15:46.380Z,68.86
2022-08-26T09:16:46.391Z,67.94
2022-08-26T09:17:46.329Z,67.65
2022-08-26T09:18:46.329Z,67.54
2022-08-26T09:19:46.337Z,67.77
2022-08-26T09:20:46.599Z,67.87
2022-08-26T09:21:46.277Z,67.87
2022-08-26T09:22:46.267Z,68.27
2022-08-26T09:23:49.450Z,68.17
2022-08-26T09:24:48.527Z,68.37
2022-08-26T09:25:46.261Z,68.07
2022-08-26T09:26:47.335Z,68.27
2022-08-26T09:27:46.219Z,68.46
2022-08-26T09:28:47.338Z,68.37
2022-08-26T09:29:46.189Z,68.04
2022-08-26T09:30:46.241Z,68.04
2022-08-26T09:31:46.169Z,68.33
2022-08-26T09:32:55.937Z,68.04
2022-08-26T09:33:47.150Z,68.24
2022-08-26T09:34:46.168Z,68.24
2022-08-26T09:35:46.107Z,68.13
2022-08-26T09:36:46.088Z,68.24
2022-08-26T09:38:46.106Z,67.71
2022-08-26T09:39:46.070Z,67.41
2022-08-26T09:40:46.045Z,67.32
2022-08-26T09:41:47.030Z,67.48
2022-08-26T09:42:46.017Z,66.99
2022-08-26T09:43:46.046Z,67.18
2022-08-26T09:44:45.999Z,66.85
2022-08-26T09:45:50.798Z,66.36
2022-08-26T09:46:46.982Z,66.03
2022-08-26T09:47:45.965Z,65.94
2022-08-26T09:48:45.938Z,65.91
2022-08-26T09:49:45.952Z,66.00
2022-08-26T09:50:45.918Z,65.11
2022-08-26T09:51:45.909Z,64.56
2022-08-26T09:52:45.897Z,64.06
2022-08-26T09:53:45.899Z,64.36
2022-08-26T09:54:46.256Z,64.85
2022-08-26T09:55:45.864Z,64.56
2022-08-26T09:56:45.851Z,64.26
2022-08-26T09:57:46.320Z,63.37
2022-08-26T09:58:45.831Z,63.77
2022-08-26T09:59:45.818Z,63.64
2022-08-26T10:00:45.832Z,62.95
2022-08-26T10:01:45.915Z,63.05
2022-08-26T10:02:47.862Z,62.85
2022-08-26T10:03:45.851Z,63.15
2022-08-26T10:04:45.830Z,62.26
2022-08-26T10:05:45.732Z,61.96
2022-08-26T10:06:45.765Z,62.49
2022-08-26T10:07:45.717Z,62.78
2022-08-26T10:08:47.617Z,63.28
2022-08-26T10:09:45.712Z,63.18
2022-08-26T10:10:45.741Z,62.88
2022-08-26T10:11:45.667Z,63.28
2022-08-26T10:12:45.658Z,63.67
2022-08-26T10:13:45.632Z,63.47
2022-08-26T10:15:50.052Z,63.44
2022-08-26T10:16:46.631Z,63.15
2022-08-26T10:17:45.577Z,63.24
2022-08-26T10:18:45.570Z,62.65
2022-08-26T10:19:56.114Z,62.95
2022-08-26T10:20:46.563Z,62.85
2022-08-26T10:21:45.553Z,63.18
2022-08-26T10:22:45.501Z,63.47
2022-08-26T10:23:45.505Z,63.05
2022-08-26T10:24:46.395Z,63.44
2022-08-26T10:25:45.483Z,63.15
2022-08-26T10:26:45.460Z,62.95
2022-08-26T10:27:51.000Z,62.26
2022-08-26T10:28:46.431Z,62.26
2022-08-26T10:29:45.429Z,62.36
2022-08-26T10:30:45.401Z,62.46
2022-08-26T10:31:45.444Z,62.33
2022-08-26T10:32:45.385Z,62.26
2022-08-26T10:33:45.383Z,62.55
2022-08-26T10:34:45.370Z,62.68
2022-08-26T10:35:45.343Z,62.98
2022-08-26T10:37:10.595Z,63.28
2022-08-26T10:37:46.308Z,63.60
2022-08-26T10:38:45.302Z,63.80
2022-08-26T10:39:45.987Z,64.09
2022-08-26T10:40:45.379Z,64.29
2022-08-26T10:41:45.273Z,64.49
2022-08-26T10:42:45.254Z,64.78
2022-08-26T10:43:45.237Z,64.49
2022-08-26T10:44:45.242Z,64.29
2022-08-26T10:45:45.269Z,64.09
2022-08-26T10:46:45.211Z,64.00
2022-08-26T10:47:45.191Z,63.77
2022-08-26T10:48:45.181Z,63.28
2022-08-26T10:49:45.182Z,63.57
2022-08-26T10:50:45.163Z,63.47
2022-08-26T10:51:45.635Z,63.18
2022-08-26T10:52:45.135Z,62.85
2022-08-26T10:53:45.115Z,62.85
2022-08-26T10:54:45.118Z,62.82
2022-08-26T10:55:45.088Z,62.52
2022-08-26T10:56:45.073Z,61.83
2022-08-26T10:57:45.073Z,61.64
2022-08-26T10:58:45.049Z,61.44
2022-08-26T10:59:45.044Z,61.05
2022-08-26T11:00:45.100Z,61.05
2022-08-26T11:01:45.078Z,61.21
2022-08-26T11:02:47.546Z,61.11
2022-08-26T11:03:45.111Z,61.11
2022-08-26T11:04:48.415Z,61.08
2022-08-26T11:05:44.976Z,61.68
2022-08-26T11:06:44.941Z,60.89
2022-08-26T11:07:44.932Z,60.60
2022-08-26T11:08:44.969Z,60.60
2022-08-26T11:09:44.917Z,60.79
2022-08-26T11:10:44.902Z,60.79
2022-08-26T11:11:44.895Z,60.52
2022-08-26T11:12:44.865Z,61.15
2022-08-26T11:13:44.859Z,61.74
2022-08-26T11:14:53.528Z,62.16
2022-08-26T11:15:45.831Z,62.26
2022-08-26T11:16:44.862Z,62.33
2022-08-26T11:17:44.879Z,62.33
2022-08-26T11:18:44.796Z,62.16
2022-08-26T11:20:00.301Z,62.13
2022-08-26T11:20:45.996Z,61.93
2022-08-26T11:21:44.799Z,61.93
2022-08-26T11:22:47.842Z,62.03
2022-08-26T11:23:44.723Z,61.64
2022-08-26T11:24:45.726Z,61.34
2022-08-26T11:25:44.716Z,61.24
2022-08-26T11:26:56.061Z,61.54
2022-08-26T11:27:45.747Z,61.41
2022-08-26T11:28:44.688Z,61.31
2022-08-26T11:29:44.668Z,61.71
2022-08-26T11:30:44.653Z,62.00
2022-08-26T11:31:44.701Z,61.64
2022-08-26T11:32:44.626Z,62.23
2022-08-26T11:33:44.604Z,61.93
2022-08-26T11:34:44.650Z,62.16
2022-08-26T11:35:44.592Z,62.16
2022-08-26T11:36:44.574Z,62.26
2022-08-26T11:37:44.566Z,62.16
2022-08-26T11:38:44.531Z,62.23
2022-08-26T11:39:46.864Z,62.03
2022-08-26T11:40:45.584Z,62.65
2022-08-26T11:41:44.507Z,63.34
2022-08-26T11:42:44.498Z,63.34
2022-08-26T11:43:44.494Z,63.54
2022-08-26T11:44:49.438Z,63.24
2022-08-26T11:45:45.566Z,63.34
2022-08-26T11:46:44.473Z,63.64
2022-08-26T11:47:44.426Z,60.31
2022-08-26T11:48:44.430Z,59.74
2022-08-26T11:49:44.470Z,61.78
2022-08-26T11:50:44.416Z,62.85
2022-08-26T11:51:48.154Z,64.04
2022-08-26T11:52:44.376Z,65.59
2022-08-26T11:53:44.433Z,66.81
2022-08-26T11:54:44.347Z,67.41
2022-08-26T11:55:44.354Z,67.80
2022-08-26T11:56:44.329Z,68.20
2022-08-26T11:57:44.319Z,68.93
2022-08-26T11:58:44.346Z,69.72
2022-08-26T11:59:44.287Z,69.62
2022-08-26T12:00:45.679Z,70.36
2022-08-26T12:01:44.281Z,70.85
2022-08-26T12:02:44.247Z,71.48
2022-08-26T12:03:44.293Z,72.38
2022-08-26T12:04:44.298Z,72.91
2022-08-26T12:05:44.216Z,73.80
2022-08-26T12:06:45.239Z,74.30
2022-08-26T12:07:44.238Z,74.69
2022-08-26T12:08:44.176Z,75.43
2022-08-26T12:09:44.147Z,75.20
2022-08-26T12:10:44.155Z,74.84
2022-08-26T12:11:44.246Z,75.23
2022-08-26T12:12:44.126Z,75.33
2022-08-26T12:13:44.097Z,75.03
2022-08-26T12:14:44.112Z,75.33
2022-08-26T12:15:44.083Z,75.53
2022-08-26T12:16:44.098Z,75.43
2022-08-26T12:17:44.080Z,75.63
2022-08-26T12:18:44.865Z,74.40
2022-08-26T12:19:44.036Z,74.00
2022-08-26T12:20:44.026Z,73.50
2022-08-26T12:21:43.998Z,73.50
2022-08-26T12:22:48.231Z,73.70
2022-08-26T12:23:43.967Z,73.80
2022-08-26T12:24:43.968Z,73.21
2022-08-26T12:25:44.193Z,74.30
2022-08-26T12:26:43.982Z,74.20
2022-08-26T12:27:43.916Z,74.30
2022-08-26T12:28:43.896Z,74.43
2022-08-26T12:29:43.889Z,74.63
2022-08-26T12:30:43.907Z,75.13
2022-08-26T12:31:43.873Z,75.13
2022-08-26T12:32:56.557Z,75.23
2022-08-26T12:33:44.863Z,75.33
2022-08-26T12:34:43.855Z,75.23
2022-08-26T12:35:43.857Z,75.10
2022-08-26T12:36:43.883Z,74.50
2022-08-26T12:37:43.805Z,74.90
2022-08-26T12:38:43.863Z,74.99
2022-08-26T12:39:43.814Z,75.23
2022-08-26T12:40:43.800Z,75.23
2022-08-26T12:41:43.763Z,75.43
2022-08-26T12:42:43.744Z,75.67
2022-08-26T12:43:43.762Z,76.06
2022-08-26T12:44:54.313Z,76.17
2022-08-26T12:45:44.767Z,77.36
2022-08-26T12:46:47.876Z,78.39
2022-08-26T12:47:44.678Z,77.99
2022-08-26T12:48:43.665Z,79.93
2022-08-26T12:49:43.651Z,82.65
2022-08-26T12:50:43.634Z,82.09
2022-08-26T12:51:43.632Z,82.93
2022-08-26T12:52:43.604Z,83.73
2022-08-26T12:53:43.620Z,84.97
2022-08-26T12:54:43.603Z,84.47